sensor_id;sensor_type;location;lat;lon;timestamp;temperature;humidity
21801;DHT22;11062;51.164;16.924;2024-03-02T02:44:21;30.70;46.70
21801;DHT22;11062;51.164;16.924;2024-03-02T02:46:47;30.40;46.30
21801;DHT22;11062;51.164;16.924;2024-03-02T02:49:13;30.60;46.40
21801;DHT22;11062;51.164;16.924;2024-03-02T02:51:41;30.70;46.50
21801;DHT22;11062;51.164;16.924;2024-03-02T02:54:10;30.70;46.40
21801;DHT22;11062;51.164;16.924;2024-03-02T02:56:36;30.80;46.40
21801;DHT22;11062;51.164;16.924;2024-03-02T02:59:04;30.80;46.30
21801;DHT22;11062;51.164;16.924;2024-03-02T03:01:30;30.70;46.30
21801;DHT22;11062;51.164;16.924;2024-03-02T03:03:59;30.60;46.00
21801;DHT22;11062;51.164;16.924;2024-03-02T03:06:28;30.60;46.10
21801;DHT22;11062;51.164;16.924;2024-03-02T03:08:54;30.70;46.10
21801;DHT22;11062;51.164;16.924;2024-03-02T03:11:23;30.60;45.90
21801;DHT22;11062;51.164;16.924;2024-03-02T03:13:50;30.60;45.90
21801;DHT22;11062;51.164;16.924;2024-03-02T03:16:21;30.60;45.90
21801;DHT22;11062;51.164;16.924;2024-03-02T03:18:50;30.60;45.80
21801;DHT22;11062;51.164;16.924;2024-03-02T03:21:21;30.60;46.20
21801;DHT22;11062;51.164;16.924;2024-03-02T03:23:47;30.60;45.70
21801;DHT22;11062;51.164;16.924;2024-03-02T03:26:20;30.50;45.90
21801;DHT22;11062;51.164;16.924;2024-03-02T03:28:48;30.20;46.10
21801;DHT22;11062;51.164;16.924;2024-03-02T03:31:14;30.30;46.50
21801;DHT22;11062;51.164;16.924;2024-03-02T03:33:40;30.20;46.70
21801;DHT22;11062;51.164;16.924;2024-03-02T03:36:06;30.30;46.90
21801;DHT22;11062;51.164;16.924;2024-03-02T04:20:53;30.60;46.30
21801;DHT22;11062;51.164;16.924;2024-03-02T04:23:19;30.80;46.50
21801;DHT22;11062;51.164;16.924;2024-03-02T04:25:47;30.70;46.30
21801;DHT22;11062;51.164;16.924;2024-03-02T04:28:13;30.80;46.20
21801;DHT22;11062;51.164;16.924;2024-03-02T04:30:39;30.70;46.10
21801;DHT22;11062;51.164;16.924;2024-03-02T04:33:08;30.70;46.00
21801;DHT22;11062;51.164;16.924;2024-03-02T04:35:38;30.60;46.00
21801;DHT22;11062;51.164;16.924;2024-03-02T04:38:04;30.70;46.00
21801;DHT22;11062;51.164;16.924;2024-03-02T04:40:30;30.70;46.00
21801;DHT22;11062;51.164;16.924;2024-03-02T04:42:56;30.70;46.00
21801;DHT22;11062;51.164;16.924;2024-03-02T04:45:24;30.70;45.90
21801;DHT22;11062;51.164;16.924;2024-03-02T04:47:56;30.70;45.90
21801;DHT22;11062;51.164;16.924;2024-03-02T04:50:25;30.70;45.80
21801;DHT22;11062;51.164;16.924;2024-03-02T04:52:54;30.90;45.80
21801;DHT22;11062;51.164;16.924;2024-03-02T04:55:19;30.80;45.90
21801;DHT22;11062;51.164;16.924;2024-03-02T04:58:03;30.70;45.70
21801;DHT22;11062;51.164;16.924;2024-03-02T05:00:29;30.80;45.70
21801;DHT22;11062;51.164;16.924;2024-03-02T05:02:57;30.60;45.60
21801;DHT22;11062;51.164;16.924;2024-03-02T05:05:26;30.80;45.80
21801;DHT22;11062;51.164;16.924;2024-03-02T05:07:58;30.80;45.80
21801;DHT22;11062;51.164;16.924;2024-03-02T05:10:29;30.80;45.60
21801;DHT22;11062;51.164;16.924;2024-03-02T05:12:58;30.80;45.50
21801;DHT22;11062;51.164;16.924;2024-03-02T05:15:30;30.80;45.50
21801;DHT22;11062;51.164;16.924;2024-03-02T05:17:57;30.80;45.60
21801;DHT22;11062;51.164;16.924;2024-03-02T05:20:30;30.80;45.50
21801;DHT22;11062;51.164;16.924;2024-03-02T05:22:57;30.90;45.60
21801;DHT22;11062;51.164;16.924;2024-03-02T05:25:28;30.90;45.40
21801;DHT22;11062;51.164;16.924;2024-03-02T05:27:54;30.80;45.20
21801;DHT22;11062;51.164;16.924;2024-03-02T05:30:23;31.00;45.10
21801;DHT22;11062;51.164;16.924;2024-03-02T05:32:51;31.00;45.00
21801;DHT22;11062;51.164;16.924;2024-03-02T05:35:20;31.00;45.00
21801;DHT22;11062;51.164;16.924;2024-03-02T05:37:46;31.10;44.90
21801;DHT22;11062;51.164;16.924;2024-03-02T05:40:14;31.10;44.70
21801;DHT22;11062;51.164;16.924;2024-03-02T05:42:43;31.10;44.60
21801;DHT22;11062;51.164;16.924;2024-03-02T05:45:09;31.10;44.50
21801;DHT22;11062;51.164;16.924;2024-03-02T05:47:45;31.10;44.40
21801;DHT22;11062;51.164;16.924;2024-03-02T05:50:11;31.10;44.20
21801;DHT22;11062;51.164;16.924;2024-03-02T05:52:39;31.00;44.20
21801;DHT22;11062;51.164;16.924;2024-03-02T05:55:08;31.00;44.30
21801;DHT22;11062;51.164;16.924;2024-03-02T05:57:40;30.90;44.50
21801;DHT22;11062;51.164;16.924;2024-03-02T06:00:24;30.90;44.60
21801;DHT22;11062;51.164;16.924;2024-03-02T06:02:52;30.90;44.60
21801;DHT22;11062;51.164;16.924;2024-03-02T06:05:18;30.80;44.60
21801;DHT22;11062;51.164;16.924;2024-03-02T06:07:47;30.70;44.70
21801;DHT22;11062;51.164;16.924;2024-03-02T06:10:13;30.70;44.70
21801;DHT22;11062;51.164;16.924;2024-03-02T06:12:39;30.60;44.90
21801;DHT22;11062;51.164;16.924;2024-03-02T06:15:06;30.50;45.20
21801;DHT22;11062;51.164;16.924;2024-03-02T06:17:32;30.30;45.30
21801;DHT22;11062;51.164;16.924;2024-03-02T06:20:01;30.30;45.50
21801;DHT22;11062;51.164;16.924;2024-03-02T06:22:27;30.10;45.70
21801;DHT22;11062;51.164;16.924;2024-03-02T06:24:53;30.00;46.00
21801;DHT22;11062;51.164;16.924;2024-03-02T06:27:24;30.10;46.20
21801;DHT22;11062;51.164;16.924;2024-03-02T06:29:53;29.90;46.10
21801;DHT22;11062;51.164;16.924;2024-03-02T06:32:22;29.90;46.10
21801;DHT22;11062;51.164;16.924;2024-03-02T06:34:50;30.00;46.10
21801;DHT22;11062;51.164;16.924;2024-03-02T06:37:16;29.80;46.00
21801;DHT22;11062;51.164;16.924;2024-03-02T06:39:47;29.60;46.20
21801;DHT22;11062;51.164;16.924;2024-03-02T07:48:43;30.90;45.90
21801;DHT22;11062;51.164;16.924;2024-03-02T07:51:09;31.10;45.90
21801;DHT22;11062;51.164;16.924;2024-03-02T07:53:38;31.20;45.60
21801;DHT22;11062;51.164;16.924;2024-03-02T07:56:07;31.50;45.60
21801;DHT22;11062;51.164;16.924;2024-03-02T08:30:12;33.10;43.20
21801;DHT22;11062;51.164;16.924;2024-03-02T08:32:38;33.10;42.80
21801;DHT22;11062;51.164;16.924;2024-03-02T08:35:13;33.20;42.60
21801;DHT22;11062;51.164;16.924;2024-03-02T08:37:43;33.40;42.80
21801;DHT22;11062;51.164;16.924;2024-03-02T08:40:11;33.60;42.70
21801;DHT22;11062;51.164;16.924;2024-03-02T08:42:40;33.70;42.60
21801;DHT22;11062;51.164;16.924;2024-03-02T08:45:08;33.70;42.10
21801;DHT22;11062;51.164;16.924;2024-03-02T09:38:23;35.00;40.70
21801;DHT22;11062;51.164;16.924;2024-03-02T20:18:56;33.70;41.50
21801;DHT22;11062;51.164;16.924;2024-03-02T20:21:24;33.50;41.70
21801;DHT22;11062;51.164;16.924;2024-03-02T20:24:04;33.50;41.70
21801;DHT22;11062;51.164;16.924;2024-03-02T20:26:53;33.20;41.90
